createdAt,value
2019-02-27T00:01:20.766Z,5.26
2019-02-27T00:03:50.290Z,5.23
2019-02-27T00:06:19.979Z,5.19
2019-02-27T00:08:49.768Z,5.18
2019-02-27T00:11:19.303Z,5.19
2019-02-27T00:13:48.821Z,5.18
2019-02-27T00:16:18.670Z,5.19
2019-02-27T00:18:48.183Z,5.22
2019-02-27T00:21:17.772Z,5.21
2019-02-27T00:23:47.324Z,5.21
2019-02-27T00:26:16.841Z,5.19
2019-02-27T00:28:46.365Z,5.19
2019-02-27T00:31:15.974Z,5.18
2019-02-27T00:33:45.498Z,5.17
2019-02-27T00:36:15.003Z,5.17
2019-02-27T00:38:44.564Z,5.17
2019-02-27T00:41:14.085Z,5.18
2019-02-27T00:43:43.585Z,5.18
2019-02-27T00:46:13.920Z,5.20
2019-02-27T00:48:43.632Z,5.24
2019-02-27T00:51:13.151Z,5.31
2019-02-27T00:53:42.708Z,5.41
2019-02-27T00:56:12.910Z,5.47
2019-02-27T00:58:42.530Z,5.47
2019-02-27T01:01:12.613Z,5.44
2019-02-27T01:03:42.816Z,5.44
2019-02-27T01:06:14.632Z,5.40
2019-02-27T01:08:44.159Z,5.35
2019-02-27T01:11:18.187Z,5.30
2019-02-27T01:13:44.933Z,5.28
2019-02-27T01:16:16.978Z,5.33
2019-02-27T01:18:45.957Z,5.34
2019-02-27T01:21:18.942Z,5.34
2019-02-27T01:23:46.922Z,5.28
2019-02-27T01:26:16.590Z,5.23
2019-02-27T01:28:46.124Z,5.20
2019-02-27T01:31:15.751Z,5.15
2019-02-27T01:33:45.270Z,5.09
2019-02-27T01:36:14.801Z,5.01
2019-02-27T01:38:44.562Z,4.96
2019-02-27T01:41:14.088Z,4.96
2019-02-27T01:43:43.951Z,5.05
2019-02-27T01:46:13.512Z,5.10
2019-02-27T01:48:43.857Z,5.11
2019-02-27T01:51:13.423Z,5.10
2019-02-27T01:53:43.387Z,5.09
2019-02-27T01:56:12.904Z,5.06
2019-02-27T01:58:44.231Z,5.09
2019-02-27T02:01:13.690Z,5.09
2019-02-27T02:03:47.240Z,5.09
2019-02-27T02:06:14.453Z,5.06
2019-02-27T02:08:47.935Z,5.02
2019-02-27T02:11:15.609Z,4.95
2019-02-27T02:13:58.486Z,4.88
2019-02-27T02:16:50.675Z,4.82
2019-02-27T02:19:44.261Z,4.72
2019-02-27T02:22:27.491Z,4.63
2019-02-27T02:25:25.123Z,4.51
2019-02-27T02:28:35.191Z,4.42
2019-02-27T02:31:12.402Z,4.33
2019-02-27T02:34:06.366Z,4.22
2019-02-27T02:36:43.322Z,4.14
2019-02-27T02:39:23.655Z,4.05
2019-02-27T02:42:06.408Z,3.98
2019-02-27T02:45:09.590Z,3.93
2019-02-27T02:48:04.596Z,3.89
2019-02-27T02:51:02.172Z,3.87
2019-02-27T02:54:00.122Z,3.86
2019-02-27T02:56:40.506Z,3.81
2019-02-27T02:59:46.682Z,3.76
2019-02-27T03:02:32.769Z,3.76
2019-02-27T03:05:28.243Z,3.75
2019-02-27T03:08:26.576Z,3.75
2019-02-27T03:11:18.128Z,3.72
2019-02-27T03:14:17.251Z,3.72
2019-02-27T03:17:04.718Z,3.74
2019-02-27T03:19:47.423Z,3.77
2019-02-27T03:22:45.702Z,3.83
2019-02-27T03:25:31.526Z,3.85
2019-02-27T03:28:21.057Z,3.87
2019-02-27T03:31:15.707Z,3.90
2019-02-27T03:34:07.967Z,3.89
2019-02-27T03:36:39.746Z,3.87
2019-02-27T03:39:14.075Z,3.85
2019-02-27T03:42:17.232Z,3.84
2019-02-27T03:45:16.436Z,3.81
2019-02-27T03:48:12.586Z,3.78
2019-02-27T03:50:55.463Z,3.76
2019-02-27T03:53:47.256Z,3.75
2019-02-27T03:56:30.334Z,3.75
2019-02-27T03:59:16.152Z,3.73
2019-02-27T04:02:20.604Z,3.74
2019-02-27T04:05:07.159Z,3.73
2019-02-27T04:07:57.585Z,3.72
2019-02-27T04:10:30.869Z,3.71
2019-02-27T04:12:58.396Z,3.71
2019-02-27T04:15:27.907Z,3.72
2019-02-27T04:17:55.978Z,3.74
2019-02-27T04:20:25.515Z,3.72
2019-02-27T04:22:55.031Z,3.71
2019-02-27T04:25:24.597Z,3.70
2019-02-27T04:27:55.596Z,3.69
2019-02-27T04:30:26.001Z,3.67
2019-02-27T04:32:55.518Z,3.64
2019-02-27T04:35:25.027Z,3.61
2019-02-27T04:37:54.914Z,3.61
2019-02-27T04:40:24.461Z,3.64
2019-02-27T04:42:54.031Z,3.69
2019-02-27T04:45:23.579Z,3.70
2019-02-27T04:47:53.097Z,3.68
2019-02-27T04:50:22.639Z,3.65
2019-02-27T04:52:52.151Z,3.61
2019-02-27T04:55:21.871Z,3.61
2019-02-27T04:57:51.386Z,3.64
2019-02-27T05:00:20.935Z,3.66
2019-02-27T05:02:53.401Z,3.68
2019-02-27T05:05:21.734Z,3.68
2019-02-27T05:07:54.135Z,3.68
2019-02-27T05:10:22.590Z,3.68
2019-02-27T05:12:52.118Z,3.68
2019-02-27T05:15:21.665Z,3.66
2019-02-27T05:17:53.034Z,3.65
2019-02-27T05:20:22.444Z,3.64
2019-02-27T05:22:51.964Z,3.61
2019-02-27T05:25:21.504Z,3.58
2019-02-27T05:27:51.031Z,3.56
2019-02-27T05:30:20.562Z,3.52
2019-02-27T05:32:50.111Z,3.46
2019-02-27T05:35:23.318Z,3.41
2019-02-27T05:37:50.978Z,3.35
2019-02-27T05:40:25.668Z,3.30
2019-02-27T05:42:51.754Z,3.27
2019-02-27T05:45:21.846Z,3.23
2019-02-27T05:47:51.392Z,3.21
2019-02-27T05:50:20.923Z,3.18
2019-02-27T05:52:50.443Z,3.17
2019-02-27T05:55:19.984Z,3.15
2019-02-27T05:57:49.494Z,3.14
2019-02-27T06:00:21.201Z,3.13
2019-02-27T06:02:50.795Z,3.15
2019-02-27T06:05:20.315Z,3.15
2019-02-27T06:07:49.850Z,3.15
2019-02-27T06:10:20.078Z,3.17
2019-02-27T06:12:50.331Z,3.18
2019-02-27T06:15:20.108Z,3.22
2019-02-27T06:17:49.864Z,3.26
2019-02-27T06:20:19.434Z,3.30
2019-02-27T06:22:48.942Z,3.37
2019-02-27T06:25:23.206Z,3.43
2019-02-27T06:27:50.791Z,3.51
2019-02-27T06:30:21.668Z,3.59
2019-02-27T06:32:51.183Z,3.64
2019-02-27T06:35:20.717Z,3.70
2019-02-27T06:37:50.732Z,3.84
2019-02-27T06:40:21.010Z,4.02
2019-02-27T06:42:53.417Z,4.28
2019-02-27T06:45:21.804Z,4.63
2019-02-27T06:47:51.433Z,5.02
2019-02-27T06:50:25.195Z,5.53
2019-02-27T06:52:52.203Z,6.16
2019-02-27T06:55:21.988Z,6.83
2019-02-27T06:57:51.494Z,7.53
2019-02-27T07:00:25.891Z,8.21
2019-02-27T07:02:56.227Z,8.91
2019-02-27T07:05:25.904Z,9.60
2019-02-27T07:07:55.457Z,10.28
2019-02-27T07:10:24.997Z,10.83
2019-02-27T07:12:55.322Z,11.40
2019-02-27T07:15:25.055Z,11.92
2019-02-27T07:17:54.581Z,12.45
2019-02-27T07:20:25.126Z,12.95
2019-02-27T07:22:54.827Z,13.50
2019-02-27T07:25:24.363Z,14.03
2019-02-27T07:27:53.893Z,14.55
2019-02-27T07:30:24.023Z,15.07
2019-02-27T07:32:53.627Z,15.65
2019-02-27T07:35:25.520Z,16.13
2019-02-27T07:37:54.487Z,16.62
2019-02-27T07:40:24.011Z,17.14
2019-02-27T07:42:53.643Z,17.62
2019-02-27T07:45:23.928Z,18.05
2019-02-27T07:47:53.438Z,18.47
2019-02-27T07:50:23.291Z,18.92
2019-02-27T07:52:52.798Z,19.37
2019-02-27T07:55:23.611Z,19.77
2019-02-27T07:57:58.342Z,20.17
2019-02-27T08:00:26.392Z,20.56
2019-02-27T08:02:56.230Z,20.98
2019-02-27T08:05:27.982Z,21.35
2019-02-27T08:07:57.013Z,21.66
2019-02-27T08:10:27.283Z,21.98
2019-02-27T08:12:56.898Z,21.85
2019-02-27T08:15:26.453Z,22.07
2019-02-27T08:17:57.977Z,22.43
2019-02-27T08:20:27.329Z,22.74
2019-02-27T08:22:57.957Z,23.16
2019-02-27T08:25:27.780Z,23.36
2019-02-27T08:27:57.361Z,23.62
2019-02-27T08:30:46.290Z,23.80
2019-02-27T08:33:15.918Z,24.00
2019-02-27T08:35:45.525Z,24.28
2019-02-27T08:38:15.285Z,24.55
2019-02-27T08:40:45.187Z,24.78
2019-02-27T08:43:15.027Z,24.95
2019-02-27T08:45:44.821Z,25.19
2019-02-27T08:48:17.254Z,25.42
2019-02-27T08:50:45.776Z,25.62
2019-02-27T08:53:15.361Z,25.81
2019-02-27T08:55:44.989Z,25.98
2019-02-27T08:58:14.593Z,26.09
2019-02-27T09:00:47.071Z,26.30
2019-02-27T09:03:20.220Z,26.50
2019-02-27T09:05:47.311Z,26.53
2019-02-27T09:08:16.911Z,26.25
2019-02-27T09:10:46.471Z,26.13
2019-02-27T09:13:16.115Z,26.25
2019-02-27T09:15:45.695Z,26.49
2019-02-27T09:18:15.267Z,26.70
2019-02-27T09:20:44.863Z,26.88
2019-02-27T09:23:14.437Z,27.13
2019-02-27T09:25:44.282Z,27.35
2019-02-27T09:28:13.852Z,27.55
2019-02-27T09:30:43.417Z,27.73
2019-02-27T09:33:13.008Z,27.78
2019-02-27T09:35:42.645Z,27.65
2019-02-27T09:38:12.230Z,27.54
2019-02-27T09:40:41.953Z,27.50
2019-02-27T09:43:11.731Z,27.61
2019-02-27T09:45:46.245Z,27.73
2019-02-27T09:48:12.875Z,27.81
2019-02-27T09:50:48.333Z,27.86
2019-02-27T09:53:18.786Z,27.78
2019-02-27T09:55:53.251Z,27.59
2019-02-27T09:58:19.917Z,27.53
2019-02-27T10:00:59.146Z,27.38
2019-02-27T10:03:27.927Z,27.34
2019-02-27T10:05:57.528Z,27.20
2019-02-27T10:08:27.153Z,27.21
2019-02-27T10:10:56.718Z,27.18
2019-02-27T10:13:26.385Z,27.18
2019-02-27T10:16:00.612Z,27.16
2019-02-27T10:18:27.602Z,27.20
2019-02-27T10:20:57.311Z,27.08
2019-02-27T10:23:30.180Z,26.89
2019-02-27T10:25:58.218Z,26.58
2019-02-27T10:28:27.781Z,26.26
2019-02-27T10:30:57.467Z,25.81
2019-02-27T10:33:27.031Z,25.43
2019-02-27T10:35:56.955Z,25.06
2019-02-27T10:38:26.884Z,24.80
2019-02-27T10:40:56.622Z,24.71
2019-02-27T10:43:26.213Z,24.50
2019-02-27T10:45:55.850Z,24.13
2019-02-27T10:48:25.423Z,23.86
2019-02-27T10:50:55.114Z,23.65
2019-02-27T10:53:27.173Z,23.33
2019-02-27T10:55:56.188Z,22.92
2019-02-27T10:58:25.807Z,22.67
2019-02-27T11:00:58.085Z,22.26
2019-02-27T11:03:27.540Z,21.78
2019-02-27T11:05:57.110Z,21.37
2019-02-27T11:08:29.551Z,21.12
2019-02-27T11:10:58.522Z,20.99
2019-02-27T11:13:28.231Z,20.89
2019-02-27T11:15:57.881Z,20.77
2019-02-27T11:18:27.450Z,20.60
2019-02-27T11:20:59.180Z,20.45
2019-02-27T11:23:28.327Z,20.30
2019-02-27T11:25:57.894Z,20.03
2019-02-27T11:28:27.495Z,19.70
2019-02-27T11:30:57.119Z,19.28
2019-02-27T11:33:30.115Z,18.82
2019-02-27T11:35:58.064Z,18.28
2019-02-27T11:38:27.814Z,17.81
2019-02-27T11:40:57.382Z,17.36
2019-02-27T11:43:27.028Z,17.05
2019-02-27T11:45:58.022Z,16.80
2019-02-27T11:48:27.922Z,16.56
2019-02-27T11:50:57.697Z,16.40
2019-02-27T11:53:27.260Z,16.21
2019-02-27T11:55:56.903Z,16.08
2019-02-27T11:58:26.504Z,15.94
2019-02-27T12:00:56.130Z,15.83
2019-02-27T12:03:25.800Z,15.70
2019-02-27T12:05:55.479Z,15.60
2019-02-27T12:08:26.653Z,15.54
2019-02-27T12:10:56.624Z,15.49
2019-02-27T12:13:26.180Z,15.45
2019-02-27T12:15:55.786Z,15.40
2019-02-27T12:18:25.348Z,15.36
2019-02-27T12:20:55.054Z,15.35
2019-02-27T12:23:24.642Z,15.36
2019-02-27T12:25:54.211Z,15.36
2019-02-27T12:28:24.564Z,15.37
2019-02-27T12:30:54.121Z,15.39
2019-02-27T12:33:23.689Z,15.38
2019-02-27T12:35:53.283Z,15.38
2019-02-27T12:38:23.137Z,15.39
2019-02-27T12:40:52.720Z,15.40
2019-02-27T12:43:22.289Z,15.37
2019-02-27T12:45:51.915Z,15.35
2019-02-27T12:48:21.588Z,15.32
2019-02-27T12:50:51.411Z,15.33
2019-02-27T12:53:21.774Z,15.35
2019-02-27T12:55:51.603Z,15.35
2019-02-27T12:58:21.225Z,15.34
2019-02-27T13:00:50.880Z,15.35
2019-02-27T13:03:20.507Z,15.36
2019-02-27T13:05:50.119Z,15.37
2019-02-27T13:08:19.680Z,15.38
2019-02-27T13:10:49.325Z,15.38
2019-02-27T13:13:18.921Z,15.42
2019-02-27T13:15:48.489Z,15.45
2019-02-27T13:18:18.362Z,15.47
2019-02-27T13:20:47.986Z,15.49
2019-02-27T13:23:17.553Z,15.49
2019-02-27T13:25:47.148Z,15.50
2019-02-27T13:28:16.704Z,15.51
2019-02-27T13:30:46.454Z,15.53
2019-02-27T13:33:16.034Z,15.55
2019-02-27T13:35:45.731Z,15.57
2019-02-27T13:38:18.525Z,15.59
2019-02-27T13:40:46.747Z,15.60
2019-02-27T13:43:16.397Z,15.61
2019-02-27T13:45:47.567Z,15.61
2019-02-27T13:48:17.351Z,15.64
2019-02-27T13:50:47.001Z,15.66
2019-02-27T13:53:16.567Z,15.68
2019-02-27T13:55:48.138Z,15.68
2019-02-27T13:58:17.475Z,15.68
2019-02-27T14:00:47.170Z,15.69
2019-02-27T14:03:16.765Z,15.70
2019-02-27T14:05:46.323Z,15.69
2019-02-27T14:08:16.359Z,15.68
2019-02-27T14:10:46.004Z,15.67
2019-02-27T14:13:15.573Z,15.67
2019-02-27T14:15:45.165Z,15.66
2019-02-27T14:18:16.114Z,15.66
2019-02-27T14:20:46.119Z,15.67
2019-02-27T14:23:15.681Z,15.67
2019-02-27T14:25:45.322Z,15.66
2019-02-27T14:28:14.919Z,15.64
2019-02-27T14:30:57.319Z,15.63
2019-02-27T14:33:26.909Z,15.61
2019-02-27T14:35:56.471Z,15.60
2019-02-27T14:38:26.050Z,15.57
2019-02-27T14:40:55.721Z,15.56
2019-02-27T14:43:27.358Z,15.56
2019-02-27T14:45:56.678Z,15.52
2019-02-27T14:48:27.776Z,15.50
2019-02-27T14:50:57.359Z,15.49
2019-02-27T14:53:26.953Z,15.47
2019-02-27T14:55:56.667Z,15.44
2019-02-27T14:58:26.254Z,15.40
2019-02-27T15:00:55.837Z,15.35
2019-02-27T15:03:29.280Z,15.33
2019-02-27T15:05:56.924Z,15.28
2019-02-27T15:08:26.479Z,15.24
2019-02-27T15:10:56.510Z,15.23
2019-02-27T15:13:28.429Z,15.18
2019-02-27T15:15:57.379Z,15.14
2019-02-27T15:18:27.249Z,15.10
2019-02-27T15:20:56.879Z,15.04
2019-02-27T15:23:28.310Z,15.00
2019-02-27T15:25:57.781Z,14.94
2019-02-27T15:28:32.997Z,14.90
2019-02-27T15:30:58.672Z,14.86
2019-02-27T15:33:28.251Z,14.81
2019-02-27T15:35:57.855Z,14.75
2019-02-27T15:38:27.418Z,14.68
2019-02-27T15:40:56.984Z,14.63
2019-02-27T15:43:26.573Z,14.58
2019-02-27T15:45:56.136Z,14.55
2019-02-27T15:48:25.890Z,14.48
2019-02-27T15:50:57.234Z,14.40
2019-02-27T15:53:26.825Z,14.33
2019-02-27T15:55:56.516Z,14.28
2019-02-27T15:58:28.117Z,14.20
2019-02-27T16:00:57.576Z,14.14
2019-02-27T16:03:27.145Z,14.07
2019-02-27T16:05:56.708Z,14.03
2019-02-27T16:08:26.318Z,13.99
2019-02-27T16:10:55.891Z,13.89
2019-02-27T16:13:25.497Z,13.81
2019-02-27T16:15:55.128Z,13.72
2019-02-27T16:18:24.686Z,13.62
2019-02-27T16:20:54.285Z,13.55
2019-02-27T16:23:23.906Z,13.44
2019-02-27T16:25:55.885Z,13.34
2019-02-27T16:28:24.884Z,13.29
2019-02-27T16:30:54.452Z,13.19
2019-02-27T16:33:24.611Z,13.12
2019-02-27T16:35:54.365Z,13.02
2019-02-27T16:38:24.046Z,12.95
2019-02-27T16:40:53.717Z,12.85
2019-02-27T16:43:23.265Z,12.77
2019-02-27T16:45:52.860Z,12.68
2019-02-27T16:48:22.442Z,12.58
2019-02-27T16:50:52.236Z,12.49
2019-02-27T16:53:21.827Z,12.40
2019-02-27T16:55:51.388Z,12.34
2019-02-27T16:58:21.376Z,12.37
2019-02-27T17:00:54.403Z,12.33
2019-02-27T17:03:22.613Z,12.25
2019-02-27T17:05:52.167Z,12.15
2019-02-27T17:08:21.785Z,12.06
2019-02-27T17:10:51.937Z,11.98
2019-02-27T17:13:22.263Z,11.88
2019-02-27T17:15:51.837Z,11.81
2019-02-27T17:18:21.403Z,11.75
2019-02-27T17:20:51.041Z,11.67
2019-02-27T17:23:20.639Z,11.59
2019-02-27T17:25:50.268Z,11.52
2019-02-27T17:28:20.290Z,11.46
2019-02-27T17:30:49.935Z,11.41
2019-02-27T17:33:19.586Z,11.33
2019-02-27T17:35:49.202Z,11.27
2019-02-27T17:38:18.779Z,11.23
2019-02-27T17:40:48.542Z,11.20
2019-02-27T17:43:18.166Z,11.16
2019-02-27T17:45:47.725Z,11.12
2019-02-27T17:48:17.314Z,11.08
2019-02-27T17:50:46.892Z,11.06
2019-02-27T17:53:16.889Z,11.04
2019-02-27T17:55:46.456Z,11.04
2019-02-27T17:58:16.017Z,11.01
2019-02-27T18:00:49.978Z,10.99
2019-02-27T18:03:18.584Z,10.96
2019-02-27T18:05:48.170Z,10.93
2019-02-27T18:08:17.740Z,10.90
2019-02-27T18:10:47.445Z,10.85
2019-02-27T18:13:17.039Z,10.82
2019-02-27T18:15:46.733Z,10.80
2019-02-27T18:18:16.399Z,10.75
2019-02-27T18:20:47.512Z,10.71
2019-02-27T18:23:17.066Z,10.69
2019-02-27T18:25:46.727Z,10.68
2019-02-27T18:28:16.291Z,10.67
2019-02-27T18:30:46.136Z,10.63
2019-02-27T18:33:17.468Z,10.58
2019-02-27T18:35:47.193Z,10.52
2019-02-27T18:38:16.823Z,10.47
2019-02-27T18:40:46.389Z,10.42
2019-02-27T18:43:16.030Z,10.39
2019-02-27T18:45:48.131Z,10.33
2019-02-27T18:48:16.912Z,10.30
2019-02-27T18:50:46.862Z,10.27
2019-02-27T18:53:16.451Z,10.21
2019-02-27T18:55:46.206Z,10.17
2019-02-27T18:58:18.246Z,10.13
2019-02-27T19:00:47.144Z,10.07
2019-02-27T19:03:16.817Z,10.03
2019-02-27T19:05:46.460Z,9.98
2019-02-27T19:08:16.333Z,9.93
2019-02-27T19:10:46.346Z,9.86
2019-02-27T19:13:16.096Z,9.82
2019-02-27T19:15:46.447Z,9.76
2019-02-27T19:18:16.071Z,9.72
2019-02-27T19:20:47.623Z,9.68
2019-02-27T19:23:18.516Z,9.65
2019-02-27T19:25:48.538Z,9.60
2019-02-27T19:28:18.194Z,9.55
2019-02-27T19:30:47.762Z,9.52
2019-02-27T19:33:17.592Z,9.48
2019-02-27T19:35:47.213Z,9.45
2019-02-27T19:38:16.792Z,9.41
2019-02-27T19:40:46.514Z,9.40
2019-02-27T19:43:18.122Z,9.37
2019-02-27T19:45:47.733Z,9.34
2019-02-27T19:48:17.294Z,9.32
2019-02-27T19:50:47.394Z,9.29
2019-02-27T19:53:17.019Z,9.28
2019-02-27T19:55:46.724Z,9.26
2019-02-27T19:58:18.191Z,9.23
2019-02-27T20:00:48.757Z,9.17
2019-02-27T20:03:18.534Z,9.14
2019-02-27T20:05:50.612Z,9.13
2019-02-27T20:08:19.618Z,9.10
2019-02-27T20:10:52.065Z,9.05
2019-02-27T20:13:24.718Z,9.01
2019-02-27T20:15:53.183Z,8.95
2019-02-27T20:18:23.536Z,8.89
2019-02-27T20:20:53.418Z,8.83
2019-02-27T20:23:25.766Z,8.77
2019-02-27T20:25:56.088Z,8.71
2019-02-27T20:28:25.974Z,8.68
2019-02-27T20:30:55.543Z,8.64
2019-02-27T20:33:25.167Z,8.61
2019-02-27T20:35:55.632Z,8.60
2019-02-27T20:38:26.331Z,8.58
2019-02-27T20:40:55.991Z,8.54
2019-02-27T20:43:29.139Z,8.48
2019-02-27T20:45:56.905Z,8.41
2019-02-27T20:48:26.521Z,8.35
2019-02-27T20:51:05.895Z,8.28
2019-02-27T20:53:34.526Z,8.24
2019-02-27T20:56:04.088Z,8.20
2019-02-27T20:58:33.681Z,8.17
2019-02-27T21:01:03.243Z,8.13
2019-02-27T21:03:32.910Z,8.09
2019-02-27T21:06:02.541Z,8.05
2019-02-27T21:08:33.281Z,8.01
2019-02-27T21:11:04.441Z,7.98
2019-02-27T21:13:34.000Z,7.94
2019-02-27T21:16:09.264Z,7.89
2019-02-27T21:18:35.412Z,7.84
2019-02-27T21:21:05.074Z,7.81
2019-02-27T21:23:34.736Z,7.78
2019-02-27T21:26:04.424Z,7.77
2019-02-27T21:28:34.019Z,7.74
2019-02-27T21:31:03.723Z,7.73
2019-02-27T21:33:33.302Z,7.69
2019-02-27T21:36:03.665Z,7.65
2019-02-27T21:38:33.467Z,7.62
2019-02-27T21:41:03.101Z,7.58
2019-02-27T21:43:32.679Z,7.56
2019-02-27T21:46:02.234Z,7.53
2019-02-27T21:48:31.825Z,7.53
2019-02-27T21:51:01.389Z,7.51
2019-02-27T21:53:30.937Z,7.52
2019-02-27T21:56:00.525Z,7.53
2019-02-27T21:58:32.834Z,7.58
2019-02-27T22:01:01.397Z,7.59
2019-02-27T22:03:31.422Z,7.58
2019-02-27T22:06:00.981Z,7.57
2019-02-27T22:08:30.665Z,7.54
2019-02-27T22:11:00.450Z,7.51
2019-02-27T22:13:32.262Z,7.46
2019-02-27T22:16:01.393Z,7.42
2019-02-27T22:18:31.127Z,7.38
2019-02-27T22:21:00.751Z,7.34
2019-02-27T22:23:30.302Z,7.33
2019-02-27T22:26:03.143Z,7.30
2019-02-27T22:28:31.366Z,7.26
2019-02-27T22:31:06.290Z,7.21
2019-02-27T22:33:32.326Z,7.19
2019-02-27T22:36:01.948Z,7.18
2019-02-27T22:38:31.506Z,7.16
2019-02-27T22:41:01.089Z,7.13
2019-02-27T22:43:30.642Z,7.12
2019-02-27T22:46:00.197Z,7.13
2019-02-27T22:48:29.781Z,7.12
2019-02-27T22:50:59.356Z,7.08
2019-02-27T22:53:29.419Z,7.08
2019-02-27T22:55:59.322Z,7.07
2019-02-27T22:58:28.897Z,7.06
2019-02-27T23:01:10.373Z,7.04
2019-02-27T23:03:44.829Z,7.07
2019-02-27T23:06:14.443Z,7.08
2019-02-27T23:08:44.191Z,7.11
2019-02-27T23:11:14.081Z,7.13
2019-02-27T23:13:47.635Z,7.17
2019-02-27T23:16:18.532Z,7.20
2019-02-27T23:18:48.225Z,7.22
2019-02-27T23:21:18.037Z,7.20
2019-02-27T23:23:47.630Z,7.19
2019-02-27T23:26:19.814Z,7.19
2019-02-27T23:28:48.673Z,7.19
2019-02-27T23:31:22.404Z,7.16
2019-02-27T23:33:49.543Z,7.12
2019-02-27T23:36:22.010Z,7.08
2019-02-27T23:38:50.488Z,7.07
2019-02-27T23:41:22.899Z,7.05
2019-02-27T23:43:51.324Z,7.02
2019-02-27T23:46:21.004Z,6.97
2019-02-27T23:48:50.543Z,6.92
2019-02-27T23:51:20.113Z,6.89
2019-02-27T23:53:49.684Z,6.86
2019-02-27T23:56:20.240Z,6.83
2019-02-27T23:58:50.322Z,6.80
